1K1 weather

Lloyd Stearman Field
Benton, Kansas, United States

Public forecast

Using degrees Fahrenheit for public forecast. Weather courtesy of forecast.io.

Closest aviation weather report (METAR) to Lloyd Stearman Field

Closest report is Colonel James Jabara Airport, 5.4 nm (10.0 km) WSW. Retrieved 2019/12/12 15:37 UTC (0 seconds ago):

KAAO 121537Z AUTO 19015G25KT 10SM FEW028 OVC042 06/M01 A3011 RMK AO2 PK WND 20027/1506 T00611006

Closest aviation forecast (TAF) to Lloyd Stearman Field

Closest forecast is Mc Connell Air Force Base, 11.9 nm (22.0 km) SW. Retrieved 2019/12/12 10:06 UTC (6 hours ago):

TAF KIAB 121000Z 1210/1316 19015G25KT 9999 BKN020 WS020/21060KT QNH3003INS TEMPO 1210/1212 20025G35KT BECMG 1220/1221 20010KT 9999 FEW019 QNH3006INS BECMG 1223/1224 VRB06KT 9999 SCT080 QNH2990INS BECMG 1314/1315 VRB06KT 9999 FEW075 510753 QNH2988INS TX07/1221Z TN03/1309Z